sensor_id;sensor_type;location;lat;lon;timestamp;P1;durP1;ratioP1;P2;durP2;ratioP2
2029;SDS011;1020;48.854;8.830;2023-06-01T00:02:08;4.30;;;3.37;;
2029;SDS011;1020;48.854;8.830;2023-06-01T00:04:37;3.20;;;2.57;;
2029;SDS011;1020;48.854;8.830;2023-06-01T00:07:05;2.80;;;2.60;;
2029;SDS011;1020;48.854;8.830;2023-06-01T00:09:32;3.80;;;3.37;;
2029;SDS011;1020;48.854;8.830;2023-06-01T00:12:00;5.53;;;3.13;;
2029;SDS011;1020;48.854;8.830;2023-06-01T00:14:27;3.23;;;3.00;;
2029;SDS011;1020;48.854;8.830;2023-06-01T00:16:53;3.70;;;3.40;;
2029;SDS011;1020;48.854;8.830;2023-06-01T00:19:21;3.43;;;3.13;;
2029;SDS011;1020;48.854;8.830;2023-06-01T00:21:50;4.27;;;3.53;;
2029;SDS011;1020;48.854;8.830;2023-06-01T00:24:18;3.27;;;3.07;;
2029;SDS011;1020;48.854;8.830;2023-06-01T00:26:45;2.80;;;2.60;;
2029;SDS011;1020;48.854;8.830;2023-06-01T00:29:13;3.70;;;3.40;;
2029;SDS011;1020;48.854;8.830;2023-06-01T00:31:40;2.90;;;2.70;;
2029;SDS011;1020;48.854;8.830;2023-06-01T00:34:07;3.03;;;2.80;;
2029;SDS011;1020;48.854;8.830;2023-06-01T00:36:34;5.10;;;3.07;;
2029;SDS011;1020;48.854;8.830;2023-06-01T00:39:01;3.80;;;3.50;;
2029;SDS011;1020;48.854;8.830;2023-06-01T00:41:28;3.60;;;3.20;;
2029;SDS011;1020;48.854;8.830;2023-06-01T00:43:55;3.67;;;3.00;;
2029;SDS011;1020;48.854;8.830;2023-06-01T00:46:23;3.47;;;2.97;;
2029;SDS011;1020;48.854;8.830;2023-06-01T00:48:51;6.43;;;2.90;;
2029;SDS011;1020;48.854;8.830;2023-06-01T00:51:18;6.13;;;3.27;;
2029;SDS011;1020;48.854;8.830;2023-06-01T00:53:45;3.00;;;2.57;;
2029;SDS011;1020;48.854;8.830;2023-06-01T00:56:13;3.40;;;3.10;;
2029;SDS011;1020;48.854;8.830;2023-06-01T00:58:40;3.67;;;2.43;;
2029;SDS011;1020;48.854;8.830;2023-06-01T01:01:07;2.63;;;2.43;;
2029;SDS011;1020;48.854;8.830;2023-06-01T01:03:45;3.97;;;2.97;;
2029;SDS011;1020;48.854;8.830;2023-06-01T01:06:16;3.43;;;3.10;;
2029;SDS011;1020;48.854;8.830;2023-06-01T01:08:50;4.30;;;3.23;;
2029;SDS011;1020;48.854;8.830;2023-06-01T01:11:32;3.47;;;3.17;;
2029;SDS011;1020;48.854;8.830;2023-06-01T01:14:04;3.70;;;2.50;;
2029;SDS011;1020;48.854;8.830;2023-06-01T01:16:35;3.00;;;2.70;;
2029;SDS011;1020;48.854;8.830;2023-06-01T01:19:25;6.50;;;2.90;;
2029;SDS011;1020;48.854;8.830;2023-06-01T01:22:04;3.07;;;2.87;;
2029;SDS011;1020;48.854;8.830;2023-06-01T01:24:43;3.30;;;2.57;;
2029;SDS011;1020;48.854;8.830;2023-06-01T01:27:29;3.60;;;3.10;;
2029;SDS011;1020;48.854;8.830;2023-06-01T01:30:06;3.43;;;3.10;;
2029;SDS011;1020;48.854;8.830;2023-06-01T01:32:34;7.30;;;3.23;;
2029;SDS011;1020;48.854;8.830;2023-06-01T01:35:01;3.40;;;3.03;;
2029;SDS011;1020;48.854;8.830;2023-06-01T01:37:29;2.50;;;2.30;;
2029;SDS011;1020;48.854;8.830;2023-06-01T01:39:58;3.50;;;2.77;;
2029;SDS011;1020;48.854;8.830;2023-06-01T01:42:24;3.00;;;2.80;;
2029;SDS011;1020;48.854;8.830;2023-06-01T01:44:52;2.53;;;2.33;;
2029;SDS011;1020;48.854;8.830;2023-06-01T01:47:29;5.00;;;2.50;;
2029;SDS011;1020;48.854;8.830;2023-06-01T01:49:59;3.40;;;2.93;;
2029;SDS011;1020;48.854;8.830;2023-06-01T01:52:32;2.40;;;2.20;;
2029;SDS011;1020;48.854;8.830;2023-06-01T01:55:00;2.70;;;2.50;;
2029;SDS011;1020;48.854;8.830;2023-06-01T01:57:29;4.50;;;3.13;;
2029;SDS011;1020;48.854;8.830;2023-06-01T01:59:58;3.07;;;2.70;;
2029;SDS011;1020;48.854;8.830;2023-06-01T02:02:27;3.27;;;2.80;;
2029;SDS011;1020;48.854;8.830;2023-06-01T02:04:54;3.70;;;2.93;;
2029;SDS011;1020;48.854;8.830;2023-06-01T02:07:21;2.73;;;2.53;;
2029;SDS011;1020;48.854;8.830;2023-06-01T02:09:48;2.87;;;2.50;;
2029;SDS011;1020;48.854;8.830;2023-06-01T02:12:14;3.43;;;2.53;;
2029;SDS011;1020;48.854;8.830;2023-06-01T02:14:41;3.73;;;2.43;;
2029;SDS011;1020;48.854;8.830;2023-06-01T02:17:08;2.63;;;2.43;;
2029;SDS011;1020;48.854;8.830;2023-06-01T02:19:36;3.00;;;2.80;;
2029;SDS011;1020;48.854;8.830;2023-06-01T02:22:03;3.40;;;3.10;;
2029;SDS011;1020;48.854;8.830;2023-06-01T02:24:30;5.00;;;2.90;;
2029;SDS011;1020;48.854;8.830;2023-06-01T02:26:57;2.97;;;2.73;;
2029;SDS011;1020;48.854;8.830;2023-06-01T02:29:23;2.60;;;2.40;;
2029;SDS011;1020;48.854;8.830;2023-06-01T02:31:50;3.03;;;2.80;;
2029;SDS011;1020;48.854;8.830;2023-06-01T02:34:18;3.60;;;3.10;;
2029;SDS011;1020;48.854;8.830;2023-06-01T02:36:46;4.10;;;2.70;;
2029;SDS011;1020;48.854;8.830;2023-06-01T02:39:13;3.10;;;2.73;;
2029;SDS011;1020;48.854;8.830;2023-06-01T02:41:40;3.67;;;3.33;;
2029;SDS011;1020;48.854;8.830;2023-06-01T02:44:06;2.97;;;2.67;;
2029;SDS011;1020;48.854;8.830;2023-06-01T02:46:33;3.00;;;2.80;;
2029;SDS011;1020;48.854;8.830;2023-06-01T02:49:00;2.60;;;2.40;;
2029;SDS011;1020;48.854;8.830;2023-06-01T02:51:27;2.80;;;2.60;;
2029;SDS011;1020;48.854;8.830;2023-06-01T02:53:55;3.17;;;2.70;;
2029;SDS011;1020;48.854;8.830;2023-06-01T02:56:22;3.20;;;2.80;;
2029;SDS011;1020;48.854;8.830;2023-06-01T02:58:49;4.20;;;3.00;;
2029;SDS011;1020;48.854;8.830;2023-06-01T03:01:15;2.90;;;2.70;;
2029;SDS011;1020;48.854;8.830;2023-06-01T03:03:42;3.20;;;2.60;;
2029;SDS011;1020;48.854;8.830;2023-06-01T03:06:09;2.90;;;2.63;;
2029;SDS011;1020;48.854;8.830;2023-06-01T03:08:38;3.00;;;2.70;;
2029;SDS011;1020;48.854;8.830;2023-06-01T03:11:06;2.67;;;2.47;;
2029;SDS011;1020;48.854;8.830;2023-06-01T03:13:33;3.13;;;2.30;;
2029;SDS011;1020;48.854;8.830;2023-06-01T03:16:00;2.50;;;2.20;;
2029;SDS011;1020;48.854;8.830;2023-06-01T03:18:27;3.80;;;2.70;;
2029;SDS011;1020;48.854;8.830;2023-06-01T03:20:54;2.90;;;2.67;;
2029;SDS011;1020;48.854;8.830;2023-06-01T03:23:20;3.07;;;2.73;;
2029;SDS011;1020;48.854;8.830;2023-06-01T03:25:47;3.27;;;2.97;;
2029;SDS011;1020;48.854;8.830;2023-06-01T03:28:15;2.83;;;2.63;;
2029;SDS011;1020;48.854;8.830;2023-06-01T03:30:42;4.67;;;3.17;;
2029;SDS011;1020;48.854;8.830;2023-06-01T03:33:10;2.83;;;2.63;;
2029;SDS011;1020;48.854;8.830;2023-06-01T03:35:37;2.80;;;2.60;;
2029;SDS011;1020;48.854;8.830;2023-06-01T03:38:04;3.53;;;3.03;;
2029;SDS011;1020;48.854;8.830;2023-06-01T03:40:30;2.90;;;2.70;;
2029;SDS011;1020;48.854;8.830;2023-06-01T03:42:57;4.90;;;3.33;;
2029;SDS011;1020;48.854;8.830;2023-06-01T03:45:25;3.40;;;3.10;;
2029;SDS011;1020;48.854;8.830;2023-06-01T03:47:52;4.13;;;3.40;;
2029;SDS011;1020;48.854;8.830;2023-06-01T03:50:19;3.20;;;3.00;;
2029;SDS011;1020;48.854;8.830;2023-06-01T03:52:46;4.40;;;2.87;;
2029;SDS011;1020;48.854;8.830;2023-06-01T03:55:12;2.90;;;2.70;;
2029;SDS011;1020;48.854;8.830;2023-06-01T03:57:40;3.70;;;3.37;;
2029;SDS011;1020;48.854;8.830;2023-06-01T04:00:07;3.60;;;3.10;;
2029;SDS011;1020;48.854;8.830;2023-06-01T04:02:47;3.30;;;3.10;;
2029;SDS011;1020;48.854;8.830;2023-06-01T04:05:16;5.13;;;3.30;;
2029;SDS011;1020;48.854;8.830;2023-06-01T04:07:43;4.93;;;3.40;;
2029;SDS011;1020;48.854;8.830;2023-06-01T04:10:11;4.63;;;3.50;;
2029;SDS011;1020;48.854;8.830;2023-06-01T04:12:39;4.33;;;3.20;;
2029;SDS011;1020;48.854;8.830;2023-06-01T04:15:07;3.43;;;2.70;;
2029;SDS011;1020;48.854;8.830;2023-06-01T04:17:35;3.60;;;3.17;;
2029;SDS011;1020;48.854;8.830;2023-06-01T04:20:04;5.10;;;3.00;;
2029;SDS011;1020;48.854;8.830;2023-06-01T04:22:32;4.33;;;2.90;;
2029;SDS011;1020;48.854;8.830;2023-06-01T04:24:59;3.73;;;3.03;;
2029;SDS011;1020;48.854;8.830;2023-06-01T04:27:26;5.00;;;3.00;;
2029;SDS011;1020;48.854;8.830;2023-06-01T04:29:53;4.67;;;3.93;;
2029;SDS011;1020;48.854;8.830;2023-06-01T04:32:19;4.00;;;3.60;;
2029;SDS011;1020;48.854;8.830;2023-06-01T04:34:47;3.70;;;3.30;;
2029;SDS011;1020;48.854;8.830;2023-06-01T04:37:16;5.33;;;2.87;;
2029;SDS011;1020;48.854;8.830;2023-06-01T04:39:44;3.07;;;2.87;;
2029;SDS011;1020;48.854;8.830;2023-06-01T04:42:13;4.83;;;3.60;;
2029;SDS011;1020;48.854;8.830;2023-06-01T04:44:42;3.30;;;3.00;;
2029;SDS011;1020;48.854;8.830;2023-06-01T04:47:10;4.30;;;3.90;;
2029;SDS011;1020;48.854;8.830;2023-06-01T04:49:39;4.00;;;3.50;;
2029;SDS011;1020;48.854;8.830;2023-06-01T04:52:07;4.27;;;2.63;;
2029;SDS011;1020;48.854;8.830;2023-06-01T04:54:36;3.33;;;3.03;;
2029;SDS011;1020;48.854;8.830;2023-06-01T04:57:03;3.80;;;3.47;;
2029;SDS011;1020;48.854;8.830;2023-06-01T04:59:31;3.23;;;2.93;;
2029;SDS011;1020;48.854;8.830;2023-06-01T05:01:59;3.53;;;3.10;;
2029;SDS011;1020;48.854;8.830;2023-06-01T05:04:26;4.80;;;3.20;;
2029;SDS011;1020;48.854;8.830;2023-06-01T05:06:53;2.60;;;2.40;;
2029;SDS011;1020;48.854;8.830;2023-06-01T05:09:19;3.60;;;3.30;;
2029;SDS011;1020;48.854;8.830;2023-06-01T05:11:47;6.40;;;3.67;;
2029;SDS011;1020;48.854;8.830;2023-06-01T05:14:14;3.67;;;3.30;;
2029;SDS011;1020;48.854;8.830;2023-06-01T05:16:41;3.43;;;3.13;;
2029;SDS011;1020;48.854;8.830;2023-06-01T05:19:08;4.60;;;3.20;;
2029;SDS011;1020;48.854;8.830;2023-06-01T05:21:34;3.80;;;3.33;;
2029;SDS011;1020;48.854;8.830;2023-06-01T05:24:01;3.17;;;2.80;;
2029;SDS011;1020;48.854;8.830;2023-06-01T05:26:28;2.83;;;2.63;;
2029;SDS011;1020;48.854;8.830;2023-06-01T05:28:56;3.77;;;2.90;;
2029;SDS011;1020;48.854;8.830;2023-06-01T05:31:23;3.60;;;2.80;;
2029;SDS011;1020;48.854;8.830;2023-06-01T05:33:50;3.97;;;2.70;;
2029;SDS011;1020;48.854;8.830;2023-06-01T05:36:17;3.50;;;3.13;;
2029;SDS011;1020;48.854;8.830;2023-06-01T05:38:44;3.23;;;3.03;;
2029;SDS011;1020;48.854;8.830;2023-06-01T05:41:11;2.90;;;2.60;;
2029;SDS011;1020;48.854;8.830;2023-06-01T05:43:37;3.67;;;3.37;;
2029;SDS011;1020;48.854;8.830;2023-06-01T05:46:06;4.13;;;3.33;;
2029;SDS011;1020;48.854;8.830;2023-06-01T05:48:33;2.87;;;2.67;;
2029;SDS011;1020;48.854;8.830;2023-06-01T05:50:59;2.50;;;2.23;;
2029;SDS011;1020;48.854;8.830;2023-06-01T05:53:26;2.87;;;2.67;;
2029;SDS011;1020;48.854;8.830;2023-06-01T05:55:54;2.90;;;2.53;;
2029;SDS011;1020;48.854;8.830;2023-06-01T05:58:21;2.83;;;2.63;;
2029;SDS011;1020;48.854;8.830;2023-06-01T06:00:48;7.30;;;3.03;;
2029;SDS011;1020;48.854;8.830;2023-06-01T06:03:17;3.50;;;2.67;;
2029;SDS011;1020;48.854;8.830;2023-06-01T06:05:43;3.70;;;2.90;;
2029;SDS011;1020;48.854;8.830;2023-06-01T06:08:10;2.50;;;2.30;;
2029;SDS011;1020;48.854;8.830;2023-06-01T06:10:37;2.40;;;2.20;;
2029;SDS011;1020;48.854;8.830;2023-06-01T06:13:04;4.17;;;2.40;;
2029;SDS011;1020;48.854;8.830;2023-06-01T06:15:30;5.67;;;2.40;;
2029;SDS011;1020;48.854;8.830;2023-06-01T06:17:57;3.13;;;2.93;;
2029;SDS011;1020;48.854;8.830;2023-06-01T06:20:25;2.60;;;2.40;;
2029;SDS011;1020;48.854;8.830;2023-06-01T06:22:52;3.37;;;2.70;;
2029;SDS011;1020;48.854;8.830;2023-06-01T06:25:19;2.73;;;2.30;;
2029;SDS011;1020;48.854;8.830;2023-06-01T06:27:46;3.00;;;2.80;;
2029;SDS011;1020;48.854;8.830;2023-06-01T06:30:13;5.13;;;3.00;;
2029;SDS011;1020;48.854;8.830;2023-06-01T06:32:40;3.10;;;2.70;;
2029;SDS011;1020;48.854;8.830;2023-06-01T06:35:07;4.53;;;2.30;;
2029;SDS011;1020;48.854;8.830;2023-06-01T06:37:39;2.50;;;2.30;;
2029;SDS011;1020;48.854;8.830;2023-06-01T06:40:07;2.87;;;2.13;;
2029;SDS011;1020;48.854;8.830;2023-06-01T06:42:34;2.90;;;2.27;;
2029;SDS011;1020;48.854;8.830;2023-06-01T06:45:01;3.47;;;2.80;;
2029;SDS011;1020;48.854;8.830;2023-06-01T06:47:30;2.80;;;2.50;;
2029;SDS011;1020;48.854;8.830;2023-06-01T06:49:56;4.67;;;3.17;;
2029;SDS011;1020;48.854;8.830;2023-06-01T06:52:23;2.63;;;2.30;;
2029;SDS011;1020;48.854;8.830;2023-06-01T06:54:51;2.23;;;2.13;;
2029;SDS011;1020;48.854;8.830;2023-06-01T06:57:18;2.57;;;2.37;;
2029;SDS011;1020;48.854;8.830;2023-06-01T06:59:45;2.80;;;2.50;;
2029;SDS011;1020;48.854;8.830;2023-06-01T07:02:11;6.73;;;2.67;;
2029;SDS011;1020;48.854;8.830;2023-06-01T07:04:38;2.80;;;2.53;;
2029;SDS011;1020;48.854;8.830;2023-06-01T07:07:05;2.80;;;2.60;;
2029;SDS011;1020;48.854;8.830;2023-06-01T07:09:32;2.30;;;2.10;;
2029;SDS011;1020;48.854;8.830;2023-06-01T07:12:00;4.13;;;2.87;;
2029;SDS011;1020;48.854;8.830;2023-06-01T07:14:27;11.10;;;3.07;;
2029;SDS011;1020;48.854;8.830;2023-06-01T07:16:54;2.87;;;2.63;;
2029;SDS011;1020;48.854;8.830;2023-06-01T07:19:20;2.67;;;2.47;;
2029;SDS011;1020;48.854;8.830;2023-06-01T07:21:47;3.40;;;3.00;;
2029;SDS011;1020;48.854;8.830;2023-06-01T07:24:17;3.80;;;2.30;;
2029;SDS011;1020;48.854;8.830;2023-06-01T07:26:44;2.97;;;2.20;;
2029;SDS011;1020;48.854;8.830;2023-06-01T07:29:12;3.97;;;2.50;;
2029;SDS011;1020;48.854;8.830;2023-06-01T07:31:40;3.00;;;2.33;;
2029;SDS011;1020;48.854;8.830;2023-06-01T07:34:06;2.67;;;2.47;;
2029;SDS011;1020;48.854;8.830;2023-06-01T07:36:33;2.83;;;2.50;;
2029;SDS011;1020;48.854;8.830;2023-06-01T07:39:02;4.63;;;2.70;;
2029;SDS011;1020;48.854;8.830;2023-06-01T07:41:31;3.70;;;2.87;;
2029;SDS011;1020;48.854;8.830;2023-06-01T07:43:57;4.40;;;2.40;;
2029;SDS011;1020;48.854;8.830;2023-06-01T07:46:26;8.97;;;3.37;;
2029;SDS011;1020;48.854;8.830;2023-06-01T07:48:52;2.33;;;2.20;;
2029;SDS011;1020;48.854;8.830;2023-06-01T07:51:19;2.60;;;2.40;;
2029;SDS011;1020;48.854;8.830;2023-06-01T07:53:46;4.40;;;2.97;;
2029;SDS011;1020;48.854;8.830;2023-06-01T07:56:13;3.53;;;2.60;;
2029;SDS011;1020;48.854;8.830;2023-06-01T07:58:40;3.87;;;2.47;;
2029;SDS011;1020;48.854;8.830;2023-06-01T08:01:07;2.70;;;2.50;;
2029;SDS011;1020;48.854;8.830;2023-06-01T08:03:35;2.20;;;2.10;;
2029;SDS011;1020;48.854;8.830;2023-06-01T08:06:02;2.97;;;2.00;;
2029;SDS011;1020;48.854;8.830;2023-06-01T08:08:30;3.23;;;3.03;;
2029;SDS011;1020;48.854;8.830;2023-06-01T08:10:56;3.17;;;2.77;;
2029;SDS011;1020;48.854;8.830;2023-06-01T08:13:23;3.40;;;2.87;;
2029;SDS011;1020;48.854;8.830;2023-06-01T08:15:51;4.37;;;2.50;;
2029;SDS011;1020;48.854;8.830;2023-06-01T08:18:18;5.83;;;2.93;;
2029;SDS011;1020;48.854;8.830;2023-06-01T08:20:47;6.37;;;2.70;;
2029;SDS011;1020;48.854;8.830;2023-06-01T08:23:14;3.53;;;3.00;;
2029;SDS011;1020;48.854;8.830;2023-06-01T08:25:42;3.20;;;2.90;;
2029;SDS011;1020;48.854;8.830;2023-06-01T08:28:09;4.13;;;3.27;;
2029;SDS011;1020;48.854;8.830;2023-06-01T08:30:36;3.73;;;3.43;;
2029;SDS011;1020;48.854;8.830;2023-06-01T08:33:03;3.73;;;3.37;;
2029;SDS011;1020;48.854;8.830;2023-06-01T08:35:30;4.07;;;3.70;;
2029;SDS011;1020;48.854;8.830;2023-06-01T08:37:59;4.33;;;3.70;;
2029;SDS011;1020;48.854;8.830;2023-06-01T08:40:26;4.40;;;3.80;;
2029;SDS011;1020;48.854;8.830;2023-06-01T08:42:55;3.30;;;3.00;;
2029;SDS011;1020;48.854;8.830;2023-06-01T08:45:23;4.53;;;4.13;;
2029;SDS011;1020;48.854;8.830;2023-06-01T08:47:52;3.43;;;3.17;;
2029;SDS011;1020;48.854;8.830;2023-06-01T08:50:20;4.20;;;3.83;;
2029;SDS011;1020;48.854;8.830;2023-06-01T08:52:47;3.37;;;3.07;;
2029;SDS011;1020;48.854;8.830;2023-06-01T08:55:19;4.37;;;3.27;;
2029;SDS011;1020;48.854;8.830;2023-06-01T08:57:47;4.00;;;3.10;;
2029;SDS011;1020;48.854;8.830;2023-06-01T09:00:16;4.27;;;3.90;;
2029;SDS011;1020;48.854;8.830;2023-06-01T09:02:43;4.20;;;3.90;;
2029;SDS011;1020;48.854;8.830;2023-06-01T09:05:10;4.47;;;3.50;;
2029;SDS011;1020;48.854;8.830;2023-06-01T09:07:38;4.53;;;4.13;;
2029;SDS011;1020;48.854;8.830;2023-06-01T09:10:05;5.10;;;3.50;;
2029;SDS011;1020;48.854;8.830;2023-06-01T09:12:34;3.97;;;3.57;;
2029;SDS011;1020;48.854;8.830;2023-06-01T09:15:08;4.30;;;3.90;;
2029;SDS011;1020;48.854;8.830;2023-06-01T09:17:37;3.93;;;3.53;;
2029;SDS011;1020;48.854;8.830;2023-06-01T09:20:05;3.80;;;3.23;;
2029;SDS011;1020;48.854;8.830;2023-06-01T09:22:40;3.97;;;3.67;;
2029;SDS011;1020;48.854;8.830;2023-06-01T09:25:08;3.90;;;3.60;;
2029;SDS011;1020;48.854;8.830;2023-06-01T09:27:43;4.60;;;3.67;;
2029;SDS011;1020;48.854;8.830;2023-06-01T09:30:12;4.10;;;3.80;;
2029;SDS011;1020;48.854;8.830;2023-06-01T09:32:39;3.37;;;3.17;;
2029;SDS011;1020;48.854;8.830;2023-06-01T09:35:06;6.07;;;3.50;;
2029;SDS011;1020;48.854;8.830;2023-06-01T09:37:34;4.17;;;3.87;;
2029;SDS011;1020;48.854;8.830;2023-06-01T09:40:04;4.67;;;4.27;;
2029;SDS011;1020;48.854;8.830;2023-06-01T09:42:44;3.90;;;3.50;;
2029;SDS011;1020;48.854;8.830;2023-06-01T09:45:15;3.90;;;3.60;;
2029;SDS011;1020;48.854;8.830;2023-06-01T09:47:44;5.60;;;4.00;;
2029;SDS011;1020;48.854;8.830;2023-06-01T09:50:11;4.13;;;3.67;;
2029;SDS011;1020;48.854;8.830;2023-06-01T09:52:57;4.00;;;3.70;;
2029;SDS011;1020;48.854;8.830;2023-06-01T09:55:24;4.57;;;4.10;;
2029;SDS011;1020;48.854;8.830;2023-06-01T09:57:52;4.13;;;3.80;;
2029;SDS011;1020;48.854;8.830;2023-06-01T10:00:41;4.00;;;3.70;;
2029;SDS011;1020;48.854;8.830;2023-06-01T10:03:08;4.83;;;3.40;;
2029;SDS011;1020;48.854;8.830;2023-06-01T10:05:35;4.30;;;3.57;;
2029;SDS011;1020;48.854;8.830;2023-06-01T10:08:02;4.13;;;3.83;;
2029;SDS011;1020;48.854;8.830;2023-06-01T10:10:29;4.30;;;3.90;;
2029;SDS011;1020;48.854;8.830;2023-06-01T10:12:58;4.13;;;3.80;;
2029;SDS011;1020;48.854;8.830;2023-06-01T10:15:25;4.07;;;3.77;;
2029;SDS011;1020;48.854;8.830;2023-06-01T10:17:52;6.10;;;4.03;;
2029;SDS011;1020;48.854;8.830;2023-06-01T10:20:20;3.93;;;3.63;;
2029;SDS011;1020;48.854;8.830;2023-06-01T10:22:47;5.23;;;4.00;;
2029;SDS011;1020;48.854;8.830;2023-06-01T10:25:15;4.33;;;4.00;;
2029;SDS011;1020;48.854;8.830;2023-06-01T10:27:45;3.93;;;3.63;;
2029;SDS011;1020;48.854;8.830;2023-06-01T10:30:22;4.17;;;3.77;;
2029;SDS011;1020;48.854;8.830;2023-06-01T10:32:49;4.87;;;4.27;;
2029;SDS011;1020;48.854;8.830;2023-06-01T10:38:26;3.93;;;3.33;;
2029;SDS011;1020;48.854;8.830;2023-06-01T10:40:53;4.90;;;4.53;;
2029;SDS011;1020;48.854;8.830;2023-06-01T10:43:55;4.23;;;3.87;;
2029;SDS011;1020;48.854;8.830;2023-06-01T10:49:13;4.40;;;3.77;;
2029;SDS011;1020;48.854;8.830;2023-06-01T10:51:40;5.13;;;3.80;;
2029;SDS011;1020;48.854;8.830;2023-06-01T11:02:42;4.30;;;3.50;;
2029;SDS011;1020;48.854;8.830;2023-06-01T11:05:41;3.47;;;3.13;;
2029;SDS011;1020;48.854;8.830;2023-06-01T11:11:16;3.40;;;2.87;;
2029;SDS011;1020;48.854;8.830;2023-06-01T11:13:46;3.33;;;3.00;;
2029;SDS011;1020;48.854;8.830;2023-06-01T11:16:36;3.80;;;3.30;;
2029;SDS011;1020;48.854;8.830;2023-06-01T11:19:04;3.77;;;3.43;;
2029;SDS011;1020;48.854;8.830;2023-06-01T11:21:33;3.90;;;3.60;;
2029;SDS011;1020;48.854;8.830;2023-06-01T11:24:04;5.47;;;3.70;;
2029;SDS011;1020;48.854;8.830;2023-06-01T11:26:34;4.40;;;3.00;;
2029;SDS011;1020;48.854;8.830;2023-06-01T11:29:05;3.70;;;3.40;;
2029;SDS011;1020;48.854;8.830;2023-06-01T11:31:41;3.57;;;3.27;;
2029;SDS011;1020;48.854;8.830;2023-06-01T11:34:10;3.90;;;3.60;;
2029;SDS011;1020;48.854;8.830;2023-06-01T11:36:39;3.47;;;3.17;;
2029;SDS011;1020;48.854;8.830;2023-06-01T11:39:21;3.97;;;3.67;;
2029;SDS011;1020;48.854;8.830;2023-06-01T11:41:52;3.67;;;3.37;;
2029;SDS011;1020;48.854;8.830;2023-06-01T11:44:32;3.13;;;2.93;;
2029;SDS011;1020;48.854;8.830;2023-06-01T11:46:59;4.00;;;3.70;;
2029;SDS011;1020;48.854;8.830;2023-06-01T11:49:27;3.70;;;3.40;;
2029;SDS011;1020;48.854;8.830;2023-06-01T11:51:54;3.63;;;3.30;;
2029;SDS011;1020;48.854;8.830;2023-06-01T11:54:23;4.20;;;3.80;;
2029;SDS011;1020;48.854;8.830;2023-06-01T11:56:51;3.70;;;3.37;;
2029;SDS011;1020;48.854;8.830;2023-06-01T11:59:18;4.50;;;3.67;;
2029;SDS011;1020;48.854;8.830;2023-06-01T12:01:49;3.97;;;3.67;;
2029;SDS011;1020;48.854;8.830;2023-06-01T12:04:18;4.17;;;3.70;;
2029;SDS011;1020;48.854;8.830;2023-06-01T12:06:45;3.90;;;3.70;;
2029;SDS011;1020;48.854;8.830;2023-06-01T12:09:14;3.77;;;3.47;;
2029;SDS011;1020;48.854;8.830;2023-06-01T12:11:42;7.67;;;3.80;;
2029;SDS011;1020;48.854;8.830;2023-06-01T12:14:10;3.60;;;3.30;;
2029;SDS011;1020;48.854;8.830;2023-06-01T12:16:54;3.87;;;3.57;;
2029;SDS011;1020;48.854;8.830;2023-06-01T12:19:23;3.27;;;3.07;;
2029;SDS011;1020;48.854;8.830;2023-06-01T12:21:51;4.10;;;3.70;;
2029;SDS011;1020;48.854;8.830;2023-06-01T12:24:25;4.93;;;3.50;;
2029;SDS011;1020;48.854;8.830;2023-06-01T12:26:53;3.47;;;3.27;;
2029;SDS011;1020;48.854;8.830;2023-06-01T12:29:33;5.03;;;3.93;;
2029;SDS011;1020;48.854;8.830;2023-06-01T12:32:02;4.07;;;3.77;;
2029;SDS011;1020;48.854;8.830;2023-06-01T12:34:29;4.03;;;3.73;;
2029;SDS011;1020;48.854;8.830;2023-06-01T12:36:56;5.17;;;3.60;;
2029;SDS011;1020;48.854;8.830;2023-06-01T12:39:32;4.27;;;3.70;;
2029;SDS011;1020;48.854;8.830;2023-06-01T12:42:03;4.07;;;3.77;;
2029;SDS011;1020;48.854;8.830;2023-06-01T12:44:31;3.73;;;3.50;;
2029;SDS011;1020;48.854;8.830;2023-06-01T12:46:59;4.40;;;3.23;;
2029;SDS011;1020;48.854;8.830;2023-06-01T12:49:28;3.43;;;3.23;;
2029;SDS011;1020;48.854;8.830;2023-06-01T12:51:55;7.60;;;3.30;;
2029;SDS011;1020;48.854;8.830;2023-06-01T12:54:22;2.93;;;2.73;;
2029;SDS011;1020;48.854;8.830;2023-06-01T12:56:49;4.40;;;3.13;;
2029;SDS011;1020;48.854;8.830;2023-06-01T12:59:16;3.50;;;3.20;;
2029;SDS011;1020;48.854;8.830;2023-06-01T13:01:43;3.90;;;3.10;;
2029;SDS011;1020;48.854;8.830;2023-06-01T13:04:10;3.33;;;2.90;;
2029;SDS011;1020;48.854;8.830;2023-06-01T13:06:38;3.30;;;2.80;;
2029;SDS011;1020;48.854;8.830;2023-06-01T13:09:05;3.47;;;3.17;;
2029;SDS011;1020;48.854;8.830;2023-06-01T13:11:32;3.50;;;2.35;;
2029;SDS011;1020;48.854;8.830;2023-06-01T13:13:59;2.57;;;2.37;;
2029;SDS011;1020;48.854;8.830;2023-06-01T13:16:26;2.90;;;2.70;;
2029;SDS011;1020;48.854;8.830;2023-06-01T13:18:53;3.20;;;2.90;;
2029;SDS011;1020;48.854;8.830;2023-06-01T13:21:20;3.00;;;2.70;;
2029;SDS011;1020;48.854;8.830;2023-06-01T13:23:48;3.03;;;2.53;;
2029;SDS011;1020;48.854;8.830;2023-06-01T13:26:14;3.07;;;2.87;;
2029;SDS011;1020;48.854;8.830;2023-06-01T13:28:42;2.90;;;2.70;;
2029;SDS011;1020;48.854;8.830;2023-06-01T13:31:09;3.20;;;2.80;;
2029;SDS011;1020;48.854;8.830;2023-06-01T13:33:35;2.73;;;2.53;;
2029;SDS011;1020;48.854;8.830;2023-06-01T13:36:02;2.93;;;2.40;;
2029;SDS011;1020;48.854;8.830;2023-06-01T13:38:30;3.10;;;2.80;;
2029;SDS011;1020;48.854;8.830;2023-06-01T13:40:58;3.07;;;2.73;;
2029;SDS011;1020;48.854;8.830;2023-06-01T13:43:25;2.90;;;2.70;;
2029;SDS011;1020;48.854;8.830;2023-06-01T13:45:52;3.03;;;2.80;;
2029;SDS011;1020;48.854;8.830;2023-06-01T13:48:19;4.43;;;2.80;;
2029;SDS011;1020;48.854;8.830;2023-06-01T13:50:45;2.40;;;2.20;;
2029;SDS011;1020;48.854;8.830;2023-06-01T13:53:12;2.60;;;2.40;;
2029;SDS011;1020;48.854;8.830;2023-06-01T13:55:39;2.87;;;2.67;;
2029;SDS011;1020;48.854;8.830;2023-06-01T13:58:07;3.87;;;2.60;;
2029;SDS011;1020;48.854;8.830;2023-06-01T14:00:34;4.33;;;2.60;;
2029;SDS011;1020;48.854;8.830;2023-06-01T14:03:01;3.40;;;2.70;;
2029;SDS011;1020;48.854;8.830;2023-06-01T14:05:28;4.53;;;2.30;;
2029;SDS011;1020;48.854;8.830;2023-06-01T14:07:54;3.03;;;2.83;;
2029;SDS011;1020;48.854;8.830;2023-06-01T14:10:21;2.50;;;2.40;;
2029;SDS011;1020;48.854;8.830;2023-06-01T14:12:48;3.50;;;2.50;;
2029;SDS011;1020;48.854;8.830;2023-06-01T14:15:16;2.40;;;2.23;;
2029;SDS011;1020;48.854;8.830;2023-06-01T14:17:43;2.20;;;2.10;;
2029;SDS011;1020;48.854;8.830;2023-06-01T14:20:10;2.30;;;2.10;;
2029;SDS011;1020;48.854;8.830;2023-06-01T14:22:36;3.60;;;2.50;;
2029;SDS011;1020;48.854;8.830;2023-06-01T14:25:04;2.00;;;1.90;;
2029;SDS011;1020;48.854;8.830;2023-06-01T14:27:31;2.20;;;2.00;;
2029;SDS011;1020;48.854;8.830;2023-06-01T14:29:58;4.13;;;2.57;;
2029;SDS011;1020;48.854;8.830;2023-06-01T14:32:28;2.50;;;2.10;;
2029;SDS011;1020;48.854;8.830;2023-06-01T14:34:55;2.10;;;2.00;;
2029;SDS011;1020;48.854;8.830;2023-06-01T14:37:22;3.50;;;2.33;;
2029;SDS011;1020;48.854;8.830;2023-06-01T14:39:49;2.80;;;2.03;;
2029;SDS011;1020;48.854;8.830;2023-06-01T14:42:16;1.80;;;1.70;;
2029;SDS011;1020;48.854;8.830;2023-06-01T14:44:43;2.70;;;1.70;;
2029;SDS011;1020;48.854;8.830;2023-06-01T14:47:10;1.87;;;1.77;;
2029;SDS011;1020;48.854;8.830;2023-06-01T14:49:38;2.73;;;1.90;;
2029;SDS011;1020;48.854;8.830;2023-06-01T14:52:05;2.00;;;1.90;;
2029;SDS011;1020;48.854;8.830;2023-06-01T14:54:32;1.70;;;1.60;;
2029;SDS011;1020;48.854;8.830;2023-06-01T14:56:59;2.20;;;2.10;;
2029;SDS011;1020;48.854;8.830;2023-06-01T14:59:26;2.10;;;1.83;;
2029;SDS011;1020;48.854;8.830;2023-06-01T15:01:53;1.97;;;1.67;;
2029;SDS011;1020;48.854;8.830;2023-06-01T15:04:19;2.00;;;1.80;;
2029;SDS011;1020;48.854;8.830;2023-06-01T15:06:47;4.00;;;1.97;;
2029;SDS011;1020;48.854;8.830;2023-06-01T15:09:14;2.10;;;2.00;;
2029;SDS011;1020;48.854;8.830;2023-06-01T15:11:41;1.90;;;1.70;;
2029;SDS011;1020;48.854;8.830;2023-06-01T15:14:08;1.90;;;1.77;;
2029;SDS011;1020;48.854;8.830;2023-06-01T15:16:34;2.10;;;1.87;;
2029;SDS011;1020;48.854;8.830;2023-06-01T15:19:01;2.20;;;2.10;;
2029;SDS011;1020;48.854;8.830;2023-06-01T15:21:28;2.43;;;2.23;;
2029;SDS011;1020;48.854;8.830;2023-06-01T15:23:57;3.50;;;1.90;;
2029;SDS011;1020;48.854;8.830;2023-06-01T15:26:24;2.20;;;2.10;;
2029;SDS011;1020;48.854;8.830;2023-06-01T15:28:51;2.20;;;2.00;;
2029;SDS011;1020;48.854;8.830;2023-06-01T15:31:17;3.43;;;2.10;;
2029;SDS011;1020;48.854;8.830;2023-06-01T15:33:45;2.00;;;1.80;;
2029;SDS011;1020;48.854;8.830;2023-06-01T15:36:12;3.77;;;1.90;;
2029;SDS011;1020;48.854;8.830;2023-06-01T15:38:39;3.67;;;2.50;;
2029;SDS011;1020;48.854;8.830;2023-06-01T15:41:08;2.03;;;1.83;;